createdAt,value
2023-05-12T00:00:17.183Z,5.00
2023-05-12T00:02:47.054Z,6.72
2023-05-12T00:05:15.597Z,4.07
2023-05-12T00:07:43.893Z,4.38
2023-05-12T00:10:12.582Z,4.28
2023-05-12T00:12:41.383Z,3.90
2023-05-12T00:15:11.825Z,3.72
2023-05-12T00:17:40.181Z,3.78
2023-05-12T00:20:09.568Z,3.70
2023-05-12T00:22:37.913Z,3.25
2023-05-12T00:25:07.121Z,5.20
2023-05-12T00:27:35.559Z,3.95
2023-05-12T00:30:04.029Z,5.05
2023-05-12T00:32:33.790Z,2.92
2023-05-12T00:35:02.393Z,5.45
2023-05-12T00:37:30.990Z,5.45
2023-05-12T00:39:59.522Z,4.30
2023-05-12T00:42:28.462Z,6.55
2023-05-12T00:44:56.941Z,5.60
2023-05-12T00:47:25.462Z,5.05
2023-05-12T00:49:55.527Z,4.32
2023-05-12T00:52:23.915Z,4.80
2023-05-12T00:54:52.264Z,7.65
2023-05-12T00:57:20.870Z,6.03
2023-05-12T00:59:49.090Z,5.25
2023-05-12T01:02:17.457Z,4.90
2023-05-12T01:04:46.999Z,5.88
2023-05-12T01:07:19.886Z,4.65
2023-05-12T01:09:49.003Z,6.30
2023-05-12T01:12:17.391Z,5.13
2023-05-12T01:14:45.980Z,4.45
2023-05-12T01:17:14.896Z,7.05
2023-05-12T01:19:45.850Z,5.10
2023-05-12T01:22:14.309Z,5.32
2023-05-12T01:24:47.804Z,5.97
2023-05-12T01:27:18.319Z,5.57
2023-05-12T01:29:47.122Z,4.80
2023-05-12T01:32:17.762Z,4.30
2023-05-12T01:34:46.231Z,6.72
2023-05-12T01:37:14.769Z,5.90
2023-05-12T01:39:43.242Z,5.85
2023-05-12T01:42:18.122Z,4.35
2023-05-12T01:44:46.628Z,5.90
2023-05-12T01:47:15.859Z,3.50
2023-05-12T01:49:49.317Z,3.80
2023-05-12T01:52:18.349Z,4.97
2023-05-12T01:54:46.707Z,4.93
2023-05-12T01:57:15.804Z,4.30
2023-05-12T01:59:45.694Z,5.18
2023-05-12T02:02:14.340Z,4.07
2023-05-12T02:04:43.220Z,4.45
2023-05-12T02:07:11.446Z,6.43
2023-05-12T02:09:39.672Z,4.88
2023-05-12T02:12:08.502Z,8.13
2023-05-12T02:14:36.788Z,4.88
2023-05-12T02:17:07.109Z,7.60
2023-05-12T02:19:36.092Z,4.95
2023-05-12T02:22:04.413Z,5.18
2023-05-12T02:24:32.635Z,5.93
2023-05-12T02:27:01.671Z,6.10
2023-05-12T02:29:30.007Z,4.95
2023-05-12T02:31:58.662Z,5.85
2023-05-12T02:34:28.755Z,8.15
2023-05-12T02:36:58.126Z,4.95
2023-05-12T02:39:27.501Z,4.40
2023-05-12T02:41:55.867Z,4.10
2023-05-12T02:44:24.138Z,6.28
2023-05-12T02:46:52.741Z,5.35
2023-05-12T02:49:21.194Z,6.35
2023-05-12T02:51:51.082Z,7.28
2023-05-12T02:54:19.764Z,6.25
2023-05-12T02:56:48.069Z,4.72
2023-05-12T02:59:16.470Z,8.05
2023-05-12T03:01:45.442Z,5.20
2023-05-12T03:04:13.698Z,7.05
2023-05-12T03:06:42.275Z,6.78
2023-05-12T03:09:11.994Z,5.68
2023-05-12T03:11:40.709Z,8.65
2023-05-12T03:14:09.063Z,4.25
2023-05-12T03:16:37.420Z,5.60
2023-05-12T03:19:05.928Z,7.95
2023-05-12T03:21:34.483Z,6.07
2023-05-12T03:24:03.171Z,4.95
2023-05-12T03:26:33.639Z,6.72
2023-05-12T03:29:02.184Z,5.13
2023-05-12T03:31:30.783Z,4.45
2023-05-12T03:33:59.840Z,3.20
2023-05-12T03:36:28.499Z,5.70
2023-05-12T03:38:58.225Z,8.30
2023-05-12T03:41:26.832Z,5.30
2023-05-12T03:43:56.835Z,5.95
2023-05-12T03:46:25.482Z,6.57
2023-05-12T03:48:54.488Z,7.78
2023-05-12T03:51:22.749Z,6.03
2023-05-12T03:53:52.809Z,4.97
2023-05-12T03:56:21.506Z,4.15
2023-05-12T03:58:49.901Z,4.68
2023-05-12T04:01:19.785Z,4.30
2023-05-12T04:03:48.683Z,5.18
2023-05-12T04:06:17.116Z,5.07
2023-05-12T04:08:45.460Z,5.18
2023-05-12T04:11:14.058Z,5.65
2023-05-12T04:13:44.060Z,4.95
2023-05-12T04:16:12.436Z,5.57
2023-05-12T04:18:42.155Z,4.38
2023-05-12T04:21:10.548Z,4.20
2023-05-12T04:23:38.878Z,4.55
2023-05-12T04:26:07.217Z,4.60
2023-05-12T04:28:36.989Z,6.25
2023-05-12T04:31:05.405Z,4.68
2023-05-12T04:33:34.312Z,5.50
2023-05-12T04:36:05.629Z,7.78
2023-05-12T04:38:33.931Z,6.93
2023-05-12T04:41:03.501Z,6.72
2023-05-12T04:46:03.641Z,7.22
2023-05-12T04:48:32.371Z,6.60
2023-05-12T04:51:00.738Z,7.65
2023-05-12T04:53:34.619Z,8.07
2023-05-12T04:56:03.158Z,7.40
2023-05-12T04:58:36.265Z,11.23
2023-05-12T05:01:04.987Z,8.65
2023-05-12T05:03:34.642Z,10.48
2023-05-12T05:06:03.201Z,11.38
2023-05-12T05:08:33.153Z,11.80
2023-05-12T05:11:01.999Z,12.00
2023-05-12T05:13:31.735Z,15.70
2023-05-12T05:16:00.222Z,12.95
2023-05-12T05:18:29.384Z,15.55
2023-05-12T05:20:59.214Z,17.73
2023-05-12T05:23:28.491Z,19.23
2023-05-12T05:25:58.697Z,20.27
2023-05-12T05:28:27.092Z,17.13
2023-05-12T05:30:55.482Z,20.95
2023-05-12T05:33:23.810Z,19.27
2023-05-12T05:35:52.157Z,19.38
2023-05-12T05:38:20.843Z,19.30
2023-05-12T05:40:53.538Z,19.00
2023-05-12T05:43:25.429Z,19.83
2023-05-12T05:45:55.905Z,18.02
2023-05-12T05:48:24.798Z,17.88
2023-05-12T05:50:54.071Z,17.90
2023-05-12T05:53:24.093Z,20.17
2023-05-12T05:55:53.367Z,16.45
2023-05-12T05:58:21.723Z,19.05
2023-05-12T06:00:51.599Z,21.42
2023-05-12T06:03:20.684Z,18.52
2023-05-12T06:05:49.341Z,16.67
2023-05-12T06:08:17.743Z,18.95
2023-05-12T06:10:46.241Z,21.85
2023-05-12T06:13:14.574Z,21.25
2023-05-12T06:15:42.914Z,18.30
2023-05-12T06:18:14.842Z,20.08
2023-05-12T06:20:43.252Z,16.45
2023-05-12T06:23:11.828Z,18.42
2023-05-12T06:25:40.731Z,20.10
2023-05-12T06:28:09.054Z,20.23
2023-05-12T06:30:37.350Z,21.55
2023-05-12T06:33:05.938Z,21.95
2023-05-12T06:35:35.685Z,19.38
2023-05-12T06:38:07.257Z,19.58
2023-05-12T06:40:35.513Z,19.60
2023-05-12T06:43:03.870Z,21.95
2023-05-12T06:45:36.837Z,18.83
2023-05-12T06:48:05.989Z,21.83
2023-05-12T06:50:35.846Z,26.38
2023-05-12T06:53:05.299Z,19.80
2023-05-12T06:55:33.598Z,22.08
2023-05-12T06:58:01.951Z,23.45
2023-05-12T07:00:30.744Z,20.42
2023-05-12T07:02:59.271Z,20.05
2023-05-12T07:05:27.784Z,20.10
2023-05-12T07:07:57.596Z,17.88
2023-05-12T07:10:25.884Z,23.85
2023-05-12T07:12:54.154Z,23.35
2023-05-12T07:15:23.119Z,18.25
2023-05-12T07:17:51.533Z,25.20
2023-05-12T07:20:19.909Z,20.73
2023-05-12T07:22:48.223Z,23.73
2023-05-12T07:25:18.082Z,17.75
2023-05-12T07:27:46.819Z,23.27
2023-05-12T07:30:15.583Z,16.60
2023-05-12T07:32:44.009Z,21.92
2023-05-12T07:35:12.497Z,20.60
2023-05-12T07:37:41.401Z,20.63
2023-05-12T07:40:10.120Z,21.27
2023-05-12T07:42:39.818Z,20.27
2023-05-12T07:45:08.522Z,21.30
2023-05-12T07:47:36.902Z,16.95
2023-05-12T07:50:05.417Z,16.58
2023-05-12T07:52:33.969Z,17.17
2023-05-12T07:55:02.346Z,17.00
2023-05-12T07:57:30.908Z,20.10
2023-05-12T08:00:00.855Z,19.15
2023-05-12T08:02:29.400Z,16.92
2023-05-12T08:04:57.689Z,19.83
2023-05-12T08:07:26.191Z,16.02
2023-05-12T08:09:55.314Z,16.02
2023-05-12T08:12:23.684Z,16.70
2023-05-12T08:14:52.078Z,18.25
2023-05-12T08:17:23.243Z,18.63
2023-05-12T08:19:51.569Z,15.23
2023-05-12T08:22:20.049Z,16.67
2023-05-12T08:24:48.271Z,15.00
2023-05-12T08:27:16.624Z,16.65
2023-05-12T08:29:44.961Z,17.20
2023-05-12T08:32:13.295Z,13.60
2023-05-12T08:34:42.816Z,15.88
2023-05-12T08:37:11.210Z,14.48
2023-05-12T08:39:39.464Z,15.27
2023-05-12T08:42:13.870Z,13.63
2023-05-12T08:44:42.352Z,14.63
2023-05-12T08:47:11.090Z,13.30
2023-05-12T08:49:40.980Z,12.80
2023-05-12T08:52:11.043Z,13.25
2023-05-12T08:54:48.679Z,15.38
2023-05-12T08:57:21.673Z,15.23
2023-05-12T08:59:50.038Z,16.05
2023-05-12T09:02:19.140Z,18.42
2023-05-12T09:04:48.360Z,14.93
2023-05-12T09:07:18.938Z,11.98
2023-05-12T09:09:48.784Z,13.60
2023-05-12T09:12:18.059Z,18.63
2023-05-12T09:14:47.028Z,14.80
2023-05-12T09:17:15.385Z,12.88
2023-05-12T09:19:43.655Z,12.13
2023-05-12T09:22:14.881Z,12.60
2023-05-12T09:24:44.901Z,10.60
2023-05-12T09:27:13.150Z,13.32
2023-05-12T09:29:59.303Z,12.43
2023-05-12T09:32:35.260Z,11.10
2023-05-12T09:35:04.993Z,14.43
2023-05-12T09:37:33.536Z,13.13
2023-05-12T09:40:04.910Z,13.25
2023-05-12T09:42:34.711Z,13.98
2023-05-12T09:45:04.170Z,12.10
2023-05-12T09:47:38.828Z,13.95
2023-05-12T09:50:08.156Z,11.70
2023-05-12T09:52:37.938Z,12.45
2023-05-12T09:55:09.588Z,12.55
2023-05-12T09:57:40.666Z,10.43
2023-05-12T10:00:20.177Z,15.95
2023-05-12T10:02:59.763Z,12.55
2023-05-12T10:05:28.783Z,9.18
2023-05-12T10:07:57.320Z,9.15
2023-05-12T10:10:27.871Z,7.85
2023-05-12T10:12:56.293Z,8.23
2023-05-12T10:15:25.803Z,7.47
2023-05-12T10:17:56.156Z,6.97
2023-05-12T10:20:25.013Z,6.13
2023-05-12T10:22:53.670Z,7.07
2023-05-12T10:25:23.364Z,5.35
2023-05-12T10:27:54.096Z,5.25
2023-05-12T10:30:22.840Z,6.15
2023-05-12T10:32:51.202Z,7.18
2023-05-12T10:35:19.657Z,7.57
2023-05-12T10:37:48.912Z,6.90
2023-05-12T10:40:25.572Z,7.40
2023-05-12T10:42:59.768Z,7.45
2023-05-12T10:45:28.544Z,7.32
2023-05-12T10:48:06.795Z,6.20
2023-05-12T10:50:35.222Z,7.30
2023-05-12T10:53:03.677Z,6.03
2023-05-12T10:55:33.088Z,5.60
2023-05-12T10:58:11.732Z,4.25
2023-05-12T11:00:47.742Z,3.80
2023-05-12T11:03:18.818Z,5.90
2023-05-12T11:05:48.994Z,3.75
2023-05-12T11:08:18.045Z,5.75
2023-05-12T11:10:47.964Z,6.15
2023-05-12T11:13:19.188Z,7.05
2023-05-12T11:15:48.587Z,6.28
2023-05-12T11:18:21.750Z,6.57
2023-05-12T11:20:50.132Z,5.05
2023-05-12T11:23:29.018Z,4.50
2023-05-12T11:25:57.695Z,3.40
2023-05-12T11:28:27.364Z,3.85
2023-05-12T11:30:55.992Z,3.78
2023-05-12T11:33:24.669Z,2.00
2023-05-12T11:35:53.154Z,2.58
2023-05-12T11:38:24.465Z,2.42
2023-05-12T11:40:52.909Z,4.95
2023-05-12T11:43:22.229Z,4.47
2023-05-12T11:45:51.891Z,2.78
2023-05-12T11:48:21.817Z,2.28
2023-05-12T11:50:51.762Z,3.63
2023-05-12T11:53:20.705Z,2.38
2023-05-12T11:55:50.164Z,3.15
2023-05-12T11:58:21.842Z,3.17
2023-05-12T12:00:52.694Z,1.98
2023-05-12T12:03:21.544Z,1.73
2023-05-12T12:05:59.875Z,2.60
2023-05-12T12:08:28.755Z,2.70
2023-05-12T12:10:56.968Z,1.50
2023-05-12T12:13:26.094Z,1.98
2023-05-12T12:15:56.050Z,2.10
2023-05-12T12:18:25.144Z,1.48
2023-05-12T12:20:53.486Z,1.58
2023-05-12T12:23:22.007Z,5.40
2023-05-12T12:25:50.412Z,1.27
2023-05-12T12:28:18.684Z,1.77
2023-05-12T12:30:46.873Z,1.83
2023-05-12T12:33:18.714Z,2.35
2023-05-12T12:35:48.796Z,2.17
2023-05-12T12:38:17.085Z,2.03
2023-05-12T12:40:45.701Z,2.75
2023-05-12T12:43:14.113Z,1.50
2023-05-12T12:45:42.335Z,3.65
2023-05-12T12:48:10.685Z,3.05
2023-05-12T12:50:40.508Z,3.35
2023-05-12T12:53:09.686Z,14.30
2023-05-12T12:55:37.943Z,2.83
2023-05-12T12:58:06.224Z,5.63
2023-05-12T13:00:34.562Z,1.90
2023-05-12T13:03:03.209Z,3.83
2023-05-12T13:05:31.732Z,1.20
2023-05-12T13:08:01.705Z,2.92
2023-05-12T13:10:29.908Z,1.83
2023-05-12T13:12:58.456Z,2.60
2023-05-12T13:15:26.921Z,2.72
2023-05-12T13:17:55.224Z,4.35
2023-05-12T13:20:23.581Z,11.50
2023-05-12T13:22:51.840Z,9.60
2023-05-12T13:25:21.947Z,9.88
2023-05-12T13:27:50.589Z,14.07
2023-05-12T13:30:18.900Z,12.32
2023-05-12T13:32:48.213Z,14.93
2023-05-12T13:35:16.658Z,12.65
2023-05-12T13:37:45.017Z,13.20
2023-05-12T13:40:13.756Z,9.90
2023-05-12T13:42:43.364Z,12.98
2023-05-12T13:45:12.153Z,13.60
2023-05-12T13:47:40.522Z,11.70
2023-05-12T13:50:09.498Z,9.73
2023-05-12T13:52:37.872Z,12.55
2023-05-12T13:55:06.486Z,10.52
2023-05-12T13:57:34.849Z,9.93
2023-05-12T14:00:05.028Z,13.18
2023-05-12T14:02:34.236Z,10.88
2023-05-12T14:05:02.582Z,9.60
2023-05-12T14:07:31.321Z,12.52
2023-05-12T14:10:00.270Z,10.80
2023-05-12T14:12:28.821Z,10.00
2023-05-12T14:15:07.317Z,10.68
2023-05-12T14:17:41.995Z,11.55
2023-05-12T14:20:11.611Z,13.18
2023-05-12T14:22:39.826Z,13.02
2023-05-12T14:25:08.326Z,12.55
2023-05-12T14:27:36.740Z,9.43
2023-05-12T14:30:05.504Z,12.65
2023-05-12T14:32:34.366Z,14.63
2023-05-12T14:35:04.460Z,11.02
2023-05-12T14:37:33.434Z,10.95
2023-05-12T14:40:01.865Z,11.05
2023-05-12T14:42:32.205Z,12.82
2023-05-12T14:45:00.817Z,10.68
2023-05-12T14:47:29.604Z,12.35
2023-05-12T14:49:58.130Z,9.80
2023-05-12T14:52:28.488Z,8.65
2023-05-12T14:54:56.826Z,9.68
2023-05-12T14:57:25.225Z,11.75
2023-05-12T14:59:58.711Z,10.02
2023-05-12T15:02:27.309Z,11.13
2023-05-12T15:04:55.682Z,12.13
2023-05-12T15:07:23.997Z,9.68
2023-05-12T15:09:53.700Z,12.13
2023-05-12T15:12:21.994Z,6.90
2023-05-12T15:14:50.293Z,9.32
2023-05-12T15:17:18.958Z,8.88
2023-05-12T15:19:47.675Z,9.32
2023-05-12T15:22:16.032Z,7.35
2023-05-12T15:24:44.798Z,9.75
2023-05-12T15:27:14.458Z,7.95
2023-05-12T15:29:43.074Z,6.30
2023-05-12T15:32:11.423Z,7.85
2023-05-12T15:34:40.136Z,10.55
2023-05-12T15:37:08.341Z,7.70
2023-05-12T15:39:36.733Z,7.95
2023-05-12T15:42:07.185Z,6.28
2023-05-12T15:44:37.205Z,14.40
2023-05-12T15:47:06.112Z,6.68
2023-05-12T15:49:34.379Z,5.60
2023-05-12T15:52:02.788Z,6.40
2023-05-12T15:54:31.468Z,6.82
2023-05-12T15:56:59.876Z,7.47
2023-05-12T15:59:28.563Z,9.23
2023-05-12T16:01:58.691Z,6.18
2023-05-12T16:04:30.220Z,9.70
2023-05-12T16:06:58.798Z,6.18
2023-05-12T16:09:27.057Z,5.88
2023-05-12T16:11:57.315Z,11.73
2023-05-12T16:14:26.421Z,8.07
2023-05-12T16:16:54.797Z,7.95
2023-05-12T16:19:26.531Z,7.50
2023-05-12T16:21:57.513Z,10.55
2023-05-12T16:24:28.556Z,7.18
2023-05-12T16:26:56.963Z,6.57
2023-05-12T16:29:25.195Z,6.32
2023-05-12T16:31:53.713Z,10.00
2023-05-12T16:34:22.210Z,7.82
2023-05-12T16:36:52.102Z,7.32
2023-05-12T16:39:20.840Z,5.95
2023-05-12T16:41:49.247Z,8.60
2023-05-12T16:44:17.489Z,8.52
2023-05-12T16:46:45.812Z,4.82
2023-05-12T16:49:14.169Z,4.60
2023-05-12T16:51:43.034Z,2.10
2023-05-12T16:54:12.658Z,7.22
2023-05-12T16:56:41.106Z,1.63
2023-05-12T16:59:09.441Z,1.70
2023-05-12T17:01:39.354Z,2.83
2023-05-12T17:04:07.860Z,4.15
2023-05-12T17:06:36.284Z,1.73
2023-05-12T17:09:05.651Z,3.25
2023-05-12T17:11:35.360Z,2.63
2023-05-12T17:14:04.853Z,3.65
2023-05-12T17:16:34.781Z,2.50
2023-05-12T17:21:34.459Z,6.00
2023-05-12T17:24:02.757Z,2.25
2023-05-12T17:26:31.248Z,1.92
2023-05-12T17:29:02.967Z,2.78
2023-05-12T17:31:31.756Z,2.83
2023-05-12T17:34:00.083Z,3.65
2023-05-12T17:36:28.913Z,3.13
2023-05-12T17:38:57.158Z,2.75
2023-05-12T17:41:28.355Z,2.50
2023-05-12T17:43:57.436Z,3.67
2023-05-12T17:46:27.551Z,2.70
2023-05-12T17:48:56.118Z,3.65
2023-05-12T17:51:24.454Z,3.13
2023-05-12T17:53:52.901Z,2.08
2023-05-12T17:56:21.387Z,2.17
2023-05-12T17:58:49.769Z,2.45
2023-05-12T18:01:18.066Z,1.90
2023-05-12T18:03:47.733Z,4.40
2023-05-12T18:06:16.135Z,2.38
2023-05-12T18:08:44.824Z,2.17
2023-05-12T18:11:13.682Z,1.77
2023-05-12T18:13:42.376Z,5.03
2023-05-12T18:16:18.207Z,2.38
2023-05-12T18:18:58.632Z,2.03
2023-05-12T18:21:26.957Z,3.00
2023-05-12T18:23:55.229Z,2.65
2023-05-12T18:26:23.646Z,2.20
2023-05-12T18:28:51.981Z,3.47
2023-05-12T18:31:20.390Z,2.15
2023-05-12T18:33:48.769Z,4.60
2023-05-12T18:36:18.509Z,3.60
2023-05-12T18:38:47.256Z,9.65
2023-05-12T18:41:15.805Z,5.10
2023-05-12T18:43:44.804Z,11.82
2023-05-12T18:46:13.530Z,7.57
2023-05-12T18:48:41.804Z,5.45
2023-05-12T18:51:10.696Z,7.32
2023-05-12T18:53:40.836Z,6.25
2023-05-12T18:56:09.285Z,9.25
2023-05-12T18:58:38.767Z,9.20
2023-05-12T19:01:07.046Z,9.68
2023-05-12T19:03:35.451Z,7.30
2023-05-12T19:06:03.794Z,7.90
2023-05-12T19:08:32.013Z,7.20
2023-05-12T19:11:01.746Z,6.65
2023-05-12T19:13:30.045Z,6.90
2023-05-12T19:15:58.739Z,5.93
2023-05-12T19:18:27.247Z,10.48
2023-05-12T19:20:55.876Z,8.90
2023-05-12T19:23:24.453Z,8.95
2023-05-12T19:25:52.798Z,8.60
2023-05-12T19:28:22.474Z,7.07
2023-05-12T19:30:50.798Z,8.43
2023-05-12T19:33:19.376Z,7.50
2023-05-12T19:35:47.793Z,9.25
2023-05-12T19:38:16.027Z,10.55
2023-05-12T19:40:44.356Z,8.57
2023-05-12T19:43:12.730Z,9.73
2023-05-12T19:45:42.524Z,10.60
2023-05-12T19:48:11.418Z,9.05
2023-05-12T19:50:40.049Z,9.18
2023-05-12T19:53:10.447Z,10.52
2023-05-12T19:55:39.045Z,12.45
2023-05-12T19:58:08.920Z,9.45
2023-05-12T20:00:39.324Z,10.18
2023-05-12T20:03:09.270Z,11.40
2023-05-12T20:05:37.964Z,10.98
2023-05-12T20:08:06.467Z,8.90
2023-05-12T20:10:34.706Z,9.50
2023-05-12T20:13:03.853Z,10.75
2023-05-12T20:15:32.268Z,9.43
2023-05-12T20:18:00.885Z,10.68
2023-05-12T20:20:31.434Z,11.55
2023-05-12T20:22:59.993Z,10.10
2023-05-12T20:25:31.413Z,9.85
2023-05-12T20:27:59.910Z,13.25
2023-05-12T20:30:28.507Z,10.50
2023-05-12T20:32:56.846Z,11.80
2023-05-12T20:35:25.177Z,9.88
2023-05-12T20:37:54.805Z,8.00
2023-05-12T20:40:23.502Z,10.00
2023-05-12T20:42:51.866Z,12.05
2023-05-12T20:45:20.568Z,9.20
2023-05-12T20:47:49.292Z,11.27
2023-05-12T20:50:18.004Z,10.98
2023-05-12T20:52:47.422Z,11.02
2023-05-12T20:55:17.130Z,8.25
2023-05-12T20:57:45.522Z,12.85
2023-05-12T21:00:14.772Z,8.07
2023-05-12T21:02:45.447Z,10.07
2023-05-12T21:05:13.781Z,11.65
2023-05-12T21:07:42.018Z,11.68
2023-05-12T21:10:10.731Z,9.50
2023-05-12T21:12:40.463Z,12.77
2023-05-12T21:15:13.184Z,10.00
2023-05-12T21:17:42.082Z,11.90
2023-05-12T21:20:11.745Z,10.35
2023-05-12T21:22:41.414Z,13.05
2023-05-12T21:25:10.151Z,9.85
2023-05-12T21:27:41.392Z,11.35
2023-05-12T21:30:10.299Z,11.57
2023-05-12T21:32:39.500Z,11.10
2023-05-12T21:35:08.260Z,11.52
2023-05-12T21:37:36.594Z,10.07
2023-05-12T21:40:05.168Z,12.43
2023-05-12T21:42:33.502Z,10.77
2023-05-12T21:45:03.069Z,10.07
2023-05-12T21:47:31.834Z,9.50
2023-05-12T21:50:00.832Z,9.93
2023-05-12T21:52:29.695Z,11.20
2023-05-12T21:54:58.020Z,10.73
2023-05-12T21:57:26.667Z,12.50
2023-05-12T21:59:56.223Z,11.60
2023-05-12T22:02:26.211Z,11.75
2023-05-12T22:04:54.549Z,13.18
2023-05-12T22:07:23.598Z,14.75
2023-05-12T22:09:52.393Z,10.98
2023-05-12T22:12:21.966Z,11.90
2023-05-12T22:14:50.366Z,12.65
2023-05-12T22:17:18.943Z,12.60
2023-05-12T22:19:48.551Z,11.75
2023-05-12T22:22:16.825Z,14.10
2023-05-12T22:24:45.240Z,15.55
2023-05-12T22:27:13.669Z,13.68
2023-05-12T22:29:41.874Z,13.77
2023-05-12T22:32:10.175Z,12.80
2023-05-12T22:34:38.402Z,12.88
2023-05-12T22:37:08.021Z,17.73
2023-05-12T22:39:36.787Z,15.75
2023-05-12T22:42:06.022Z,14.27
2023-05-12T22:44:34.296Z,14.80
2023-05-12T22:47:02.746Z,14.15
2023-05-12T22:49:31.030Z,20.00
2023-05-12T22:51:59.919Z,17.90
2023-05-12T22:54:29.813Z,15.48
2023-05-12T22:56:58.261Z,14.90
2023-05-12T22:59:26.852Z,15.07
2023-05-12T23:01:55.143Z,14.65
2023-05-12T23:04:23.451Z,12.57
2023-05-12T23:06:51.738Z,15.30
2023-05-12T23:09:19.947Z,13.15
2023-05-12T23:11:49.532Z,17.52
2023-05-12T23:14:17.742Z,14.98
2023-05-12T23:16:48.001Z,16.52
2023-05-12T23:19:16.663Z,10.57
2023-05-12T23:21:45.353Z,12.00
2023-05-12T23:24:13.600Z,12.32
2023-05-12T23:26:41.861Z,15.27
2023-05-12T23:29:11.430Z,13.82
2023-05-12T23:31:39.841Z,11.20
2023-05-12T23:34:08.174Z,14.95
2023-05-12T23:36:36.401Z,13.52
2023-05-12T23:39:04.812Z,13.68
2023-05-12T23:41:33.985Z,11.00
2023-05-12T23:44:02.325Z,11.63
2023-05-12T23:46:32.244Z,11.93
2023-05-12T23:49:00.780Z,10.32
2023-05-12T23:51:29.703Z,12.35
2023-05-12T23:53:58.178Z,13.13
2023-05-12T23:56:26.816Z,10.35
2023-05-12T23:58:55.297Z,11.52
